MDSD/SDQ METAR and TAF weather

Enter ICAO airport designator
Station Type Date Time Source
MDSD METAR 2021/04/18 01:00 UTC NOAA

MDSD 180100Z 15004KT 9999 FEW018 SCT300 25/23 Q1016


Station Type Date Time Source
MDSD Decoded METAR 2021/04/18 01:00 UTC NOAA

Las Americas, Dominican Republic (MDSD) 18-26N 069-40W
Apr 17, 2021 - 09:00 PM EDT / 2021.04.18 0100 UTC
Wind: from the SSE (150 degrees) at 5 MPH (4 KT):0
Visibility: greater than 7 mile(s):0
Sky conditions: partly cloudy
Temperature: 77 F (25 C)
Dew Point: 73 F (23 C)
Relative Humidity: 88%
Pressure (altimeter): 30.00 in. Hg (1016 hPa)
ob: MDSD 180100Z 15004KT 9999 FEW018 SCT300 25/23 Q1016
cycle: 1

Station Type Date Time Source
MDSD TAF 2021/04/17 18:36 UTC NOAA

TAF MDSD 171600Z 1718/1818 13012KT 9999 SCT022 PROB30 1722/1804 7000 -RA BKN016

Example: see airport list